Data for 04/22/2006

Time Sea-Level Adjusted Pressure Absolute Pressure Temperature Relative Humidity Dew Point   
(mb) (inHg) (mb) (inHg) (C) (F) (%) (C) (F)
00:05 1013 29.91 842 24.86 12.3 54.2 27 -5.9 21.4
00:10 1013 29.91 842 24.86 12.2 53.9 28 -5.8 21.6
00:15 1013 29.91 842 24.86 12.1 53.7 28 -5.7 21.7
00:20 1013 29.91 842 24.86 11.8 53.3 29 -5.5 22.2
00:25 1013 29.91 842 24.86 11.6 52.8 30 -5.4 22.3
00:30 1013 29.91 842 24.86 11.4 52.5 30 -5.6 21.9
00:35 1013 29.91 842 24.86 11.4 52.5 30 -5.6 21.9
00:40 1013 29.91 842 24.86 11.5 52.6 30 -5.6 22
00:45 1013 29.91 842 24.86 11.4 52.5 31 -5.3 22.5
00:50 1013 29.91 842 24.86 11.2 52.1 31 -5.5 22.2
00:55 1013 29.91 842 24.86 11.1 51.9 31 -5.3 22.4
01:00 1013 29.91 842 24.86 10.8 51.5 32 -5.4 22.3
01:05 1013 29.91 843 24.89 10.8 51.4 32 -5.2 22.7
01:10 1013 29.91 843 24.89 10.5 50.9 33 -5.2 22.6
01:15 1013 29.91 843 24.89 10.3 50.5 33 -5.3 22.4
01:20 1013 29.91 843 24.89 10.3 50.6 33 -5.1 22.8
01:25 1013 29.91 843 24.89 10.1 50.2 33 -5.3 22.5
01:30 1013 29.91 843 24.89 10.1 50.1 33 -5.2 22.6
01:35 1013 29.91 843 24.89 10 50.1 34 -5.1 22.9
01:40 1013 29.91 843 24.89 9.9 49.9 34 -5.3 22.4
01:45 1013 29.91 843 24.89 10 50.1 33 -5.3 22.5
01:50 1014 29.94 843 24.89 10 50.1 34 -4.9 23.1
01:55 1013 29.91 843 24.89 9.8 49.6 34 -5.3 22.4
02:00 1014 29.94 843 24.89 10 50.1 34 -5 23
02:05 1014 29.94 843 24.89 9.6 49.2 37 -4.6 23.8
02:10 1014 29.94 843 24.89 9.6 49.2 35 -5 23
02:15 1014 29.94 843 24.89 9.5 49.1 35 -5.2 22.7
02:20 1014 29.94 843 24.89 9.3 48.8 38 -4.4 24
02:25 1014 29.94 843 24.89 9.1 48.3 37 -4.7 23.5
02:30 1014 29.94 843 24.89 9 48.2 38 -4.6 23.7
02:35 1014 29.94 843 24.89 8.9 47.9 38 -4.7 23.5
02:40 1014 29.94 843 24.89 9 48.2 37 -4.9 23.2
02:45 1013 29.91 843 24.89 8.8 47.8 39 -4.3 24.3
02:50 1013 29.91 843 24.89 8.6 47.5 39 -4.6 23.8
02:55 1013 29.91 843 24.89 8.7 47.7 39 -4.6 23.8
03:00 1013 29.91 843 24.89 8.6 47.6 40 -4.3 24.3
03:05 1013 29.91 843 24.89 8.4 47.2 39 -4.6 23.7
03:10 1013 29.91 843 24.89 8.5 47.3 39 -4.5 23.9
03:15 1013 29.91 843 24.89 8.4 47.1 40 -4.3 24.2
03:20 1013 29.91 843 24.89 8.2 46.8 40 -4.5 24
03:25 1013 29.91 843 24.89 8.2 46.8 41 -4.3 24.2
03:30 1013 29.91 843 24.89 8.1 46.5 42 -4.1 24.7
03:35 1013 29.91 843 24.89 7.7 45.9 44 -3.9 25
03:40 1013 29.91 843 24.89 7.8 46 41 -4.6 23.7
03:45 1013 29.91 843 24.89 8 46.3 42 -4 24.8
03:50 1013 29.91 843 24.89 8.1 46.5 39 -5 22.9
03:55 1013 29.91 843 24.89 8.4 47.1 40 -4.3 24.2
04:00 1013 29.91 843 24.89 8.3 47 40 -4.3 24.2
04:05 1013 29.91 843 24.89 7.9 46.2 43 -4 24.7
04:10 1014 29.94 843 24.89 8 46.4 41 -4.5 24
04:15 1014 29.94 843 24.89 8.1 46.6 40 -4.5 23.8
04:20 1014 29.94 843 24.89 8.2 46.8 40 -4.5 24
04:25 1014 29.94 843 24.89 8.2 46.8 41 -4.3 24.2
04:30 1014 29.94 843 24.89 8 46.4 42 -4.2 24.5
04:35 1014 29.94 843 24.89 7.9 46.2 42 -4.1 24.6
04:40 1014 29.94 843 24.89 7.7 45.8 43 -4 24.7
04:45 1014 29.94 843 24.89 7.5 45.5 43 -4.2 24.5
04:50 1014 29.94 843 24.89 7.5 45.5 44 -4 24.8
04:55 1014 29.94 843 24.89 7.3 45.2 44 -4.1 24.7
05:00 1014 29.94 843 24.89 7.4 45.3 44 -4.1 24.6
05:05 1014 29.94 843 24.89 7.5 45.4 44 -4 24.9
05:10 1014 29.94 843 24.89 7.3 45.1 46 -3.7 25.4
05:15 1014 29.94 843 24.89 7.1 44.8 44 -4.2 24.5
05:20 1014 29.94 843 24.89 7.4 45.2 43 -4.3 24.3
05:25 1014 29.94 843 24.89 7.4 45.3 44 -4.1 24.5
05:30 1014 29.94 843 24.89 7.5 45.4 42 -4.5 23.9
05:35 1014 29.94 843 24.89 7.8 46 42 -4.4 24
05:40 1014 29.94 843 24.89 8 46.4 41 -4.6 23.8
05:45 1014 29.94 843 24.89 8.1 46.6 40 -4.6 23.7
05:50 1014 29.94 843 24.89 8.1 46.5 40 -4.8 23.4
05:55 1014 29.94 843 24.89 7.8 46.1 43 -3.9 25
06:00 1014 29.94 843 24.89 7.1 44.9 44 -4.4 24.2
06:05 1014 29.94 843 24.89 7.4 45.3 44 -4.1 24.6
06:10 1014 29.94 843 24.89 7.2 45 44 -4.2 24.5
06:15 1014 29.94 843 24.89 7.2 45 43 -4.5 23.9
06:20 1014 29.94 843 24.89 7.3 45.1 43 -4.6 23.7
06:25 1014 29.94 843 24.89 7.6 45.7 41 -4.8 23.4
06:30 1014 29.94 843 24.89 7.8 46 41 -4.8 23.3
06:35 1014 29.94 843 24.89 7.8 46 41 -4.7 23.5
06:40 1014 29.94 843 24.89 7.5 45.4 43 -4.4 24.1
06:45 1014 29.94 843 24.89 7.5 45.4 40 -5.2 22.7
06:50 1014 29.94 844 24.92 7.9 46.2 41 -4.7 23.6
06:55 1014 29.94 843 24.89 7.8 46 42 -4.3 24.3
07:00 1014 29.94 843 24.89 7.4 45.3 43 -4.2 24.4
07:05 1014 29.94 844 24.92 7.4 45.4 42 -4.7 23.6
07:10 1014 29.94 844 24.92 7.9 46.3 40 -4.8 23.4
07:15 1014 29.94 844 24.92 8 46.3 40 -4.7 23.5
07:20 1014 29.94 844 24.92 8.2 46.8 40 -4.5 23.9
07:25 1014 29.94 844 24.92 8.6 47.5 40 -4.3 24.2
07:30 1014 29.94 844 24.92 8.7 47.6 40 -4.1 24.7
07:35 1014 29.94 844 24.92 8.9 48.1 39 -4.1 24.6
07:40 1014 29.94 844 24.92 9.6 49.2 38 -4.1 24.7
07:45 1014 29.94 844 24.92 9.8 49.7 38 -3.7 25.4
07:50 1015 29.97 844 24.92 9.4 48.9 41 -3.1 26.4
07:55 1015 29.97 844 24.92 9.1 48.3 43 -3 26.6
08:00 1015 29.97 844 24.92 9.2 48.5 42 -2.9 26.7
08:05 1015 29.97 844 24.92 9.3 48.7 41 -3.2 26.2
08:10 1015 29.97 844 24.92 9.8 49.6 40 -3.1 26.4
08:15 1015 29.97 844 24.92 10 50 40 -2.9 26.8
08:20 1015 29.97 844 24.92 10.2 50.3 40 -2.9 26.8
08:25 1015 29.97 844 24.92 10.7 51.3 38 -3.1 26.5
08:30 1015 29.97 844 24.92 10.9 51.7 37 -3.1 26.4
08:35 1014 29.94 844 24.92 11.9 53.3 35 -3.2 26.3
08:40 1015 29.97 844 24.92 12.4 54.3 34 -3 26.6
08:45 1014 29.94 844 24.92 12.8 55 33 -3 26.6
08:50 1014 29.94 844 24.92 12.9 55.2 33 -2.8 27
08:55 1014 29.94 844 24.92 13 55.3 33 -2.9 26.7
09:00 1014 29.94 844 24.92 13.4 56.2 32 -3 26.5
09:05 1014 29.94 844 24.92 13.9 57.1 29 -3.8 25.1
09:10 1014 29.94 844 24.92 14.3 57.8 28 -3.7 25.4
09:15 1014 29.94 844 24.92 14.5 58.1 29 -3.1 26.4
09:20 1014 29.94 844 24.92 14.1 57.3 30 -3.2 26.2
09:25 1015 29.97 844 24.92 13.8 56.9 33 -2.1 28.1
09:30 1015 29.97 844 24.92 14.1 57.3 31 -2.7 27.1
09:35 1014 29.94 844 24.92 14.4 57.8 33 -1.4 29.4
09:40 1014 29.94 844 24.92 14.6 58.3 33 -1.6 29.2
09:45 1014 29.94 844 24.92 14.6 58.2 32 -1.9 28.6
09:50 1014 29.94 844 24.92 14.2 57.6 32 -2.1 28.2
09:55 1014 29.94 844 24.92 14.3 57.8 32 -1.9 28.6
10:00 1014 29.94 844 24.92 14.8 58.6 31 -1.9 28.5
10:05 1014 29.94 844 24.92 14.7 58.4 32 -1.7 29
10:10 1014 29.94 844 24.92 14.7 58.5 32 -1.8 28.8
10:15 1014 29.94 844 24.92 14.8 58.6 31 -2.1 28.2
10:20 1014 29.94 844 24.92 15.1 59.2 31 -1.8 28.8
10:25 1015 29.97 844 24.92 15.5 59.9 30 -2 28.4
10:30 1015 29.97 844 24.92 16.1 61 31 -1.1 30
10:35 1014 29.94 844 24.92 16 60.8 31 -0.8 30.5
10:40 1014 29.94 844 24.92 16 60.7 30 -1.5 29.4
10:45 1014 29.94 844 24.92 16.1 61 30 -1.2 29.8
10:50 1014 29.94 844 24.92 16.3 61.3 29 -1.6 29.1
10:55 1014 29.94 844 24.92 16.4 61.4 29 -1.6 29.2
11:00 1014 29.94 843 24.89 16.6 61.8 30 -1.1 29.9
11:05 1014 29.94 843 24.89 16.7 62.1 30 -0.8 30.5
11:10 1014 29.94 844 24.92 16.4 61.6 31 -0.7 30.7
11:15 1014 29.94 844 24.92 16.3 61.3 32 -0.2 31.6
11:20 1014 29.94 843 24.89 15.8 60.4 32 -1 30.3
11:25 1014 29.94 843 24.89 15.7 60.3 31 -1.3 29.6
11:30 1014 29.94 843 24.89 15.8 60.4 30 -1.7 29
11:35 1014 29.94 843 24.89 16.9 62.4 29 -1.3 29.6
11:40 1014 29.94 843 24.89 16.7 62.1 30 -0.9 30.4
11:45 1014 29.94 843 24.89 16.3 61.3 30 -1.3 29.6
11:50 1014 29.94 843 24.89 16.6 61.9 29 -1.2 29.8
11:55 1014 29.94 843 24.89 17.6 63.6 27 -1.3 29.7
12:00 1014 29.94 843 24.89 18.1 64.5 28 -0.7 30.7
12:05 1014 29.94 843 24.89 18.1 64.6 28 -0.7 30.8
12:10 1014 29.94 843 24.89 18.2 64.8 29 -0.2 31.7
12:15 1014 29.94 843 24.89 18.4 65.2 29 0.2 32.3
12:20 1014 29.94 843 24.89 18.5 65.2 29 0.3 32.5
12:25 1014 29.94 843 24.89 18.3 64.9 28 -0.3 31.5
12:30 1014 29.94 843 24.89 18.1 64.6 29 -0.1 31.8
12:35 1014 29.94 843 24.89 18.4 65 28 -0.4 31.3
12:40 1014 29.94 843 24.89 18.3 64.9 29 0.2 32.3
12:45 1014 29.94 843 24.89 17.9 64.2 28 -0.6 30.9
12:50 1013 29.91 843 24.89 18.3 64.9 28 -0.5 31.1
12:55 1013 29.91 843 24.89 18.4 65.1 27 -0.6 31
13:00 1013 29.91 843 24.89 19.3 66.7 27 -0.2 31.6
13:05 1013 29.91 843 24.89 19.7 67.5 27 0.2 32.4
13:10 1013 29.91 842 24.86 19.5 67.1 27 -0.1 31.9
13:15 1013 29.91 842 24.86 19.7 67.4 25 -0.5 31.2
13:20 1013 29.91 842 24.86 19.7 67.5 27 0.2 32.4
13:25 1013 29.91 842 24.86 19.9 67.8 25 -0.3 31.4
13:30 1013 29.91 842 24.86 20.1 68.2 26 0.2 32.3
13:35 1013 29.91 842 24.86 19.7 67.4 27 0.5 32.9
13:40 1013 29.91 842 24.86 19.8 67.6 25 -0.4 31.2
13:45 1013 29.91 842 24.86 20 68 26 -0.2 31.7
13:50 1013 29.91 842 24.86 19.8 67.6 26 -0.4 31.4
13:55 1013 29.91 842 24.86 20.5 68.9 25 0.2 32.4
14:00 1013 29.91 842 24.86 20.8 69.4 25 0.5 32.9
14:05 1013 29.91 842 24.86 20.6 69.1 25 0.2 32.4
14:10 1013 29.91 842 24.86 20.7 69.3 25 0.3 32.5
14:15 1013 29.91 842 24.86 20.9 69.6 25 0.6 33
14:20 1013 29.91 842 24.86 20.9 69.6 25 0.2 32.4
14:25 1013 29.91 842 24.86 21 69.8 24 -0 31.9
14:30 1013 29.91 842 24.86 20.9 69.6 24 -0.3 31.5
14:35 1013 29.91 842 24.86 20.8 69.4 23 -1.1 30
14:40 1013 29.91 842 24.86 20.8 69.5 24 -0.5 31
14:45 1013 29.91 842 24.86 21.5 70.8 23 -0.6 31
14:50 1013 29.91 842 24.86 21.8 71.3 21 -1 30.2
14:55 1013 29.91 842 24.86 20.8 69.5 21 -2 28.4
15:00 1013 29.91 842 24.86 21.9 71.3 21 -1.4 29.6
15:05 1013 29.91 842 24.86 21.6 70.8 22 -1.1 30
15:10 1013 29.91 842 24.86 21.3 70.3 22 -1 30.2
15:15 1013 29.91 842 24.86 21.6 70.9 21 -1.7 28.9
15:20 1013 29.91 842 24.86 21.9 71.3 20 -2.3 27.9
15:25 1013 29.91 842 24.86 21.9 71.4 19 -2.8 27
15:30 1013 29.91 842 24.86 21.3 70.4 19 -3.1 26.3
15:35 1013 29.91 842 24.86 22.3 72.1 18 -2.7 27.1
15:40 1013 29.91 842 24.86 23.2 73.8 18 -2.1 28.2
15:45 1013 29.91 842 24.86 23 73.4 18 -2.1 28.3
15:50 1013 29.91 842 24.86 22.9 73.2 19 -1.9 28.6
15:55 1012 29.88 842 24.86 22.4 72.4 22 -0.4 31.3
16:00 1012 29.88 842 24.86 22.2 71.9 22 -0.2 31.7
16:05 1012 29.88 842 24.86 22.3 72.1 22 -0.5 31
16:10 1012 29.88 842 24.86 22.5 72.5 21 -0.5 31.2
16:15 1012 29.88 841 24.83 22.1 71.7 22 -0.4 31.3
16:20 1012 29.88 841 24.83 21 69.8 23 -1 30.3
16:25 1012 29.88 841 24.83 22.1 71.9 21 -0.7 30.7
16:30 1012 29.88 841 24.83 22.8 73 20 -0.9 30.3
16:35 1012 29.88 841 24.83 23 73.4 20 -0.8 30.6
16:40 1012 29.88 841 24.83 22.9 73.3 21 -0.6 30.9
16:45 1012 29.88 841 24.83 23.1 73.5 20 -1.1 30
16:50 1012 29.88 841 24.83 23.2 73.8 20 -1 30.2
16:55 1012 29.88 841 24.83 22.9 73.1 20 -1 30.2
17:00 1012 29.88 841 24.83 23.1 73.7 20 -1.1 29.9
17:05 1012 29.88 841 24.83 23.3 73.9 19 -1.2 29.8
17:10 1012 29.88 841 24.83 23.8 74.9 19 -1.2 29.8
17:15 1012 29.88 841 24.83 23.9 75 19 -0.8 30.5
17:20 1012 29.88 841 24.83 23.4 74.1 19 -1.2 29.9
17:25 1012 29.88 841 24.83 23.1 73.7 20 -0.9 30.4
17:30 1012 29.88 841 24.83 22.9 73.2 19 -1.7 28.9
17:35 1012 29.88 841 24.83 22.5 72.5 20 -1.4 29.4
17:40 1012 29.88 841 24.83 22.8 73 20 -1.4 29.5
17:45 1012 29.88 841 24.83 22.2 72 21 -1.1 30
17:50 1012 29.88 841 24.83 21.8 71.2 21 -1.2 29.8
17:55 1012 29.88 841 24.83 21.8 71.3 21 -1.4 29.5
18:00 1012 29.88 841 24.83 21.5 70.8 22 -0.9 30.4
18:05 1012 29.88 841 24.83 21.2 70.2 22 -1 30.2
18:10 1012 29.88 841 24.83 21.2 70.2 22 -0.9 30.4
18:15 1012 29.88 841 24.83 20.9 69.6 22 -1.7 28.9
18:20 1012 29.88 841 24.83 20.4 68.7 23 -1.5 29.4
18:25 1012 29.88 841 24.83 20.6 69.1 27 0.9 33.6
18:30 1012 29.88 842 24.86 20.2 68.4 30 2 35.7
18:35 1013 29.91 842 24.86 20 68 29 1.6 34.9
18:40 1013 29.91 842 24.86 19.8 67.6 30 1.8 35.2
18:45 1013 29.91 842 24.86 19.9 67.9 31 2.3 36.2
18:50 1013 29.91 842 24.86 19.4 67 33 3.1 37.5
18:55 1013 29.91 842 24.86 18.8 65.8 35 3.1 37.6
19:00 1013 29.91 842 24.86 18.3 65 36 3.2 37.8
19:05 1013 29.91 842 24.86 18 64.4 38 3.5 38.3
19:10 1013 29.91 842 24.86 17.6 63.8 40 3.9 39
19:15 1013 29.91 842 24.86 17 62.6 42 4 39.2
19:20 1013 29.91 842 24.86 16.5 61.6 44 4.1 39.5
19:25 1013 29.91 842 24.86 16 60.7 45 4.1 39.4
19:30 1013 29.91 843 24.89 15.5 59.9 46 3.9 39.1
19:35 1014 29.94 843 24.89 15 59 49 4.6 40.2
19:40 1014 29.94 843 24.89 14.5 58 49 4 39.1
19:45 1014 29.94 843 24.89 13.9 57 53 4.6 40.2
19:50 1014 29.94 843 24.89 12.9 55.2 54 4 39.2
19:55 1014 29.94 844 24.92 12.6 54.6 55 3.7 38.7
20:00 1015 29.97 844 24.92 12.4 54.3 57 4.2 39.5
20:05 1015 29.97 844 24.92 12.2 54 55 3.5 38.4
20:10 1015 29.97 844 24.92 12 53.6 56 3.7 38.6
20:15 1015 29.97 844 24.92 11.9 53.3 57 3.6 38.4
20:20 1015 29.97 845 24.95 11.6 52.9 58 3.6 38.5
20:25 1015 29.97 845 24.95 11.3 52.4 58 3.5 38.3
20:30 1015 29.97 845 24.95 11.1 52 59 3.5 38.3
20:35 1015 29.97 845 24.95 10.7 51.3 60 3.4 38.2
20:40 1016 30 845 24.95 10.4 50.8 62 3.5 38.3
20:45 1016 30 845 24.95 10 49.9 63 3.2 37.8
20:50 1016 30 845 24.95 9.7 49.4 63 3 37.4
20:55 1016 30 845 24.95 9.5 49.1 63 2.9 37.2
21:00 1016 30 845 24.95 9.2 48.5 65 3 37.4
21:05 1016 30 846 24.98 8.7 47.7 67 2.9 37.2
21:10 1017 30.03 846 24.98 8.4 47.2 69 3 37.4
21:15 1017 30.03 846 24.98 8.4 47.2 68 2.8 37.1
21:20 1017 30.03 846 24.98 8.4 47.1 69 3 37.4
21:25 1017 30.03 846 24.98 8.1 46.6 70 2.9 37.3
21:30 1017 30.03 846 24.98 8 46.4 70 3 37.3
21:35 1017 30.03 846 24.98 8 46.4 71 3 37.5
21:40 1017 30.03 846 24.98 7.8 46 72 3 37.4
21:45 1017 30.03 846 24.98 7.7 45.9 72 3 37.4
21:50 1017 30.03 846 24.98 7.4 45.3 74 3.1 37.6
21:55 1017 30.03 847 25.01 7.1 44.9 75 3 37.3
22:00 1017 30.03 847 25.01 7 44.5 75 2.9 37.1
22:05 1018 30.06 847 25.01 6.8 44.3 75 2.8 37.1
22:10 1018 30.06 847 25.01 6.7 44 76 2.7 36.9
22:15 1018 30.06 847 25.01 6.6 43.9 76 2.7 36.8
22:20 1018 30.06 847 25.01 6.6 43.9 75 2.6 36.7
22:25 1018 30.06 847 25.01 6.7 44.1 75 2.6 36.6
22:30 1018 30.06 847 25.01 6.3 43.3 76 2.4 36.3
22:35 1018 30.06 848 25.04 5.9 42.7 77 2.2 36
22:40 1018 30.06 848 25.04 5.8 42.4 77 2.1 35.8
22:45 1018 30.06 848 25.04 5.3 41.5 79 1.9 35.3
22:50 1019 30.09 848 25.04 4.9 40.9 80 1.8 35.2
22:55 1019 30.09 848 25.04 4.9 40.8 80 1.7 35
23:00 1019 30.09 848 25.04 4.9 40.8 79 1.6 34.9
23:05 1019 30.09 848 25.04 4.8 40.6 80 1.7 35
23:10 1019 30.09 848 25.04 4.7 40.5 79 1.5 34.7
23:15 1019 30.09 848 25.04 4.6 40.3 79 1.4 34.5
23:20 1019 30.09 848 25.04 4.4 39.9 79 1.2 34.1
23:25 1019 30.09 849 25.07 4.3 39.8 80 1.1 34.1
23:30 1020 30.12 849 25.07 4.2 39.6 80 1.1 34
23:35 1020 30.12 849 25.07 4 39.2 81 1 33.9
23:40 1020 30.12 849 25.07 4.1 39.4 80 1 33.9
23:45 1020 30.12 849 25.07 4.4 39.9 81 1.4 34.4
23:50 1020 30.12 849 25.07 4.4 40 80 1.4 34.4
23:55 1020 30.12 849 25.07 4.4 39.9 81 1.4 34.4
24:00 1020 30.12 849 25.07 4.2 39.5 81 1.2 34.2